sensor_id;sensor_type;location;lat;lon;timestamp;P1;durP1;ratioP1;P2;durP2;ratioP2
74335;SDS011;62755;-33.398;-70.572;2024-03-08T00:01:21;6.97;;;1.40;;
74335;SDS011;62755;-33.398;-70.572;2024-03-08T00:03:54;9.10;;;1.65;;
74335;SDS011;62755;-33.398;-70.572;2024-03-08T00:06:24;7.72;;;1.55;;
74335;SDS011;62755;-33.398;-70.572;2024-03-08T00:08:53;11.20;;;2.10;;
74335;SDS011;62755;-33.398;-70.572;2024-03-08T00:11:25;10.00;;;1.95;;
74335;SDS011;62755;-33.398;-70.572;2024-03-08T00:13:55;11.68;;;2.05;;
74335;SDS011;62755;-33.398;-70.572;2024-03-08T00:16:25;11.68;;;1.60;;
74335;SDS011;62755;-33.398;-70.572;2024-03-08T00:18:55;4.47;;;1.42;;
74335;SDS011;62755;-33.398;-70.572;2024-03-08T00:21:24;6.63;;;1.60;;
74335;SDS011;62755;-33.398;-70.572;2024-03-08T00:23:54;5.15;;;1.58;;
74335;SDS011;62755;-33.398;-70.572;2024-03-08T00:26:26;8.93;;;1.48;;
74335;SDS011;62755;-33.398;-70.572;2024-03-08T00:28:56;10.95;;;1.60;;
74335;SDS011;62755;-33.398;-70.572;2024-03-08T00:31:25;11.80;;;1.75;;
74335;SDS011;62755;-33.398;-70.572;2024-03-08T00:33:57;13.30;;;1.40;;
74335;SDS011;62755;-33.398;-70.572;2024-03-08T00:36:26;9.57;;;1.30;;
74335;SDS011;62755;-33.398;-70.572;2024-03-08T00:38:57;9.63;;;1.40;;
74335;SDS011;62755;-33.398;-70.572;2024-03-08T00:41:28;4.35;;;1.17;;
74335;SDS011;62755;-33.398;-70.572;2024-03-08T00:43:58;15.50;;;1.88;;
74335;SDS011;62755;-33.398;-70.572;2024-03-08T00:46:27;13.30;;;1.60;;
74335;SDS011;62755;-33.398;-70.572;2024-03-08T00:48:57;10.68;;;1.63;;
74335;SDS011;62755;-33.398;-70.572;2024-03-08T00:51:27;6.00;;;1.30;;
74335;SDS011;62755;-33.398;-70.572;2024-03-08T00:53:57;5.38;;;1.48;;
74335;SDS011;62755;-33.398;-70.572;2024-03-08T00:56:28;4.65;;;1.20;;
74335;SDS011;62755;-33.398;-70.572;2024-03-08T00:58:59;16.33;;;3.53;;
74335;SDS011;62755;-33.398;-70.572;2024-03-08T01:01:29;11.05;;;1.33;;
74335;SDS011;62755;-33.398;-70.572;2024-03-08T01:03:59;5.88;;;1.55;;
74335;SDS011;62755;-33.398;-70.572;2024-03-08T01:06:28;4.85;;;1.25;;
74335;SDS011;62755;-33.398;-70.572;2024-03-08T01:08:58;6.90;;;1.65;;
74335;SDS011;62755;-33.398;-70.572;2024-03-08T01:11:30;8.80;;;1.48;;
74335;SDS011;62755;-33.398;-70.572;2024-03-08T01:14:00;6.20;;;1.20;;
74335;SDS011;62755;-33.398;-70.572;2024-03-08T01:16:29;12.52;;;1.52;;
74335;SDS011;62755;-33.398;-70.572;2024-03-08T01:18:59;12.60;;;1.48;;
74335;SDS011;62755;-33.398;-70.572;2024-03-08T01:21:29;15.10;;;1.63;;
74335;SDS011;62755;-33.398;-70.572;2024-03-08T01:23:59;9.15;;;2.03;;
74335;SDS011;62755;-33.398;-70.572;2024-03-08T01:26:30;7.75;;;1.60;;
74335;SDS011;62755;-33.398;-70.572;2024-03-08T01:29:01;13.70;;;2.15;;
74335;SDS011;62755;-33.398;-70.572;2024-03-08T01:31:31;10.25;;;1.70;;
74335;SDS011;62755;-33.398;-70.572;2024-03-08T01:34:02;7.55;;;1.63;;
74335;SDS011;62755;-33.398;-70.572;2024-03-08T01:36:32;7.63;;;1.50;;
74335;SDS011;62755;-33.398;-70.572;2024-03-08T01:39:03;5.07;;;1.50;;
74335;SDS011;62755;-33.398;-70.572;2024-03-08T01:41:35;10.35;;;1.45;;
74335;SDS011;62755;-33.398;-70.572;2024-03-08T01:44:06;7.90;;;1.55;;
74335;SDS011;62755;-33.398;-70.572;2024-03-08T01:46:35;13.20;;;1.98;;
74335;SDS011;62755;-33.398;-70.572;2024-03-08T01:49:05;5.53;;;1.98;;
74335;SDS011;62755;-33.398;-70.572;2024-03-08T01:51:35;8.77;;;1.73;;
74335;SDS011;62755;-33.398;-70.572;2024-03-08T01:54:06;14.40;;;1.45;;
74335;SDS011;62755;-33.398;-70.572;2024-03-08T01:56:40;5.25;;;1.60;;
74335;SDS011;62755;-33.398;-70.572;2024-03-08T01:59:10;10.98;;;1.58;;
74335;SDS011;62755;-33.398;-70.572;2024-03-08T02:01:40;7.90;;;1.55;;
74335;SDS011;62755;-33.398;-70.572;2024-03-08T02:04:11;9.63;;;1.75;;
74335;SDS011;62755;-33.398;-70.572;2024-03-08T02:06:40;9.80;;;2.10;;
74335;SDS011;62755;-33.398;-70.572;2024-03-08T02:09:11;7.13;;;1.92;;
74335;SDS011;62755;-33.398;-70.572;2024-03-08T02:11:42;7.63;;;1.88;;
74335;SDS011;62755;-33.398;-70.572;2024-03-08T02:14:12;9.88;;;1.48;;
74335;SDS011;62755;-33.398;-70.572;2024-03-08T02:16:42;12.50;;;2.15;;
74335;SDS011;62755;-33.398;-70.572;2024-03-08T02:19:12;11.60;;;2.28;;
74335;SDS011;62755;-33.398;-70.572;2024-03-08T02:21:43;11.50;;;1.80;;
74335;SDS011;62755;-33.398;-70.572;2024-03-08T02:24:13;10.15;;;2.38;;
74335;SDS011;62755;-33.398;-70.572;2024-03-08T02:26:43;9.65;;;1.90;;
74335;SDS011;62755;-33.398;-70.572;2024-03-08T02:29:13;9.27;;;2.08;;
74335;SDS011;62755;-33.398;-70.572;2024-03-08T02:31:43;14.73;;;2.17;;
74335;SDS011;62755;-33.398;-70.572;2024-03-08T02:34:12;7.47;;;1.70;;
74335;SDS011;62755;-33.398;-70.572;2024-03-08T02:36:44;11.63;;;2.35;;
74335;SDS011;62755;-33.398;-70.572;2024-03-08T02:39:13;12.55;;;2.03;;
74335;SDS011;62755;-33.398;-70.572;2024-03-08T02:41:45;11.18;;;1.92;;
74335;SDS011;62755;-33.398;-70.572;2024-03-08T02:44:15;9.95;;;1.98;;
74335;SDS011;62755;-33.398;-70.572;2024-03-08T02:46:47;16.90;;;3.78;;
74335;SDS011;62755;-33.398;-70.572;2024-03-08T02:49:17;18.20;;;5.68;;
74335;SDS011;62755;-33.398;-70.572;2024-03-08T02:51:48;11.00;;;2.78;;
74335;SDS011;62755;-33.398;-70.572;2024-03-08T02:54:18;18.33;;;3.35;;
74335;SDS011;62755;-33.398;-70.572;2024-03-08T02:56:48;11.57;;;2.08;;
74335;SDS011;62755;-33.398;-70.572;2024-03-08T02:59:18;10.50;;;2.50;;
74335;SDS011;62755;-33.398;-70.572;2024-03-08T03:01:48;12.70;;;2.65;;
74335;SDS011;62755;-33.398;-70.572;2024-03-08T03:04:18;11.75;;;2.15;;
74335;SDS011;62755;-33.398;-70.572;2024-03-08T03:06:49;9.02;;;1.60;;
74335;SDS011;62755;-33.398;-70.572;2024-03-08T03:09:19;6.90;;;1.60;;
74335;SDS011;62755;-33.398;-70.572;2024-03-08T03:11:53;6.57;;;1.80;;
74335;SDS011;62755;-33.398;-70.572;2024-03-08T03:14:24;13.30;;;2.05;;
74335;SDS011;62755;-33.398;-70.572;2024-03-08T03:16:54;8.82;;;1.88;;
74335;SDS011;62755;-33.398;-70.572;2024-03-08T03:19:24;12.27;;;2.42;;
74335;SDS011;62755;-33.398;-70.572;2024-03-08T03:21:55;11.40;;;1.67;;
74335;SDS011;62755;-33.398;-70.572;2024-03-08T03:24:25;13.95;;;2.30;;
74335;SDS011;62755;-33.398;-70.572;2024-03-08T03:26:55;7.55;;;1.70;;
74335;SDS011;62755;-33.398;-70.572;2024-03-08T03:29:25;12.32;;;2.08;;
74335;SDS011;62755;-33.398;-70.572;2024-03-08T03:31:56;10.90;;;2.50;;
74335;SDS011;62755;-33.398;-70.572;2024-03-08T03:34:26;12.75;;;2.00;;
74335;SDS011;62755;-33.398;-70.572;2024-03-08T03:36:57;12.95;;;2.10;;
74335;SDS011;62755;-33.398;-70.572;2024-03-08T03:39:28;11.07;;;1.70;;
74335;SDS011;62755;-33.398;-70.572;2024-03-08T03:42:00;7.00;;;1.60;;
74335;SDS011;62755;-33.398;-70.572;2024-03-08T03:44:30;7.75;;;1.83;;
74335;SDS011;62755;-33.398;-70.572;2024-03-08T03:46:59;14.48;;;2.13;;
74335;SDS011;62755;-33.398;-70.572;2024-03-08T03:49:29;10.80;;;1.83;;
74335;SDS011;62755;-33.398;-70.572;2024-03-08T03:52:01;12.45;;;1.90;;
74335;SDS011;62755;-33.398;-70.572;2024-03-08T03:54:30;10.60;;;1.92;;
74335;SDS011;62755;-33.398;-70.572;2024-03-08T03:57:00;8.23;;;1.85;;
74335;SDS011;62755;-33.398;-70.572;2024-03-08T03:59:30;14.82;;;2.40;;
74335;SDS011;62755;-33.398;-70.572;2024-03-08T04:01:59;10.57;;;2.10;;
74335;SDS011;62755;-33.398;-70.572;2024-03-08T04:04:30;8.18;;;1.55;;
74335;SDS011;62755;-33.398;-70.572;2024-03-08T04:07:01;10.48;;;1.40;;
74335;SDS011;62755;-33.398;-70.572;2024-03-08T04:09:31;8.20;;;1.63;;
74335;SDS011;62755;-33.398;-70.572;2024-03-08T04:12:03;8.90;;;1.20;;
74335;SDS011;62755;-33.398;-70.572;2024-03-08T04:14:33;6.55;;;1.35;;
74335;SDS011;62755;-33.398;-70.572;2024-03-08T04:17:03;8.15;;;1.52;;
74335;SDS011;62755;-33.398;-70.572;2024-03-08T04:19:34;7.22;;;1.33;;
74335;SDS011;62755;-33.398;-70.572;2024-03-08T04:22:06;10.77;;;1.50;;
74335;SDS011;62755;-33.398;-70.572;2024-03-08T04:24:36;8.02;;;1.30;;
74335;SDS011;62755;-33.398;-70.572;2024-03-08T04:27:06;7.40;;;1.40;;
74335;SDS011;62755;-33.398;-70.572;2024-03-08T04:29:35;7.32;;;1.30;;
74335;SDS011;62755;-33.398;-70.572;2024-03-08T04:32:05;10.00;;;1.45;;
74335;SDS011;62755;-33.398;-70.572;2024-03-08T04:34:35;6.90;;;1.17;;
74335;SDS011;62755;-33.398;-70.572;2024-03-08T04:37:07;8.32;;;1.48;;
74335;SDS011;62755;-33.398;-70.572;2024-03-08T04:39:39;11.55;;;2.05;;
74335;SDS011;62755;-33.398;-70.572;2024-03-08T04:42:09;5.13;;;1.30;;
74335;SDS011;62755;-33.398;-70.572;2024-03-08T04:44:39;10.13;;;1.45;;
74335;SDS011;62755;-33.398;-70.572;2024-03-08T04:47:09;7.55;;;1.42;;
74335;SDS011;62755;-33.398;-70.572;2024-03-08T04:49:39;8.80;;;1.75;;
74335;SDS011;62755;-33.398;-70.572;2024-03-08T04:52:11;7.47;;;1.73;;
74335;SDS011;62755;-33.398;-70.572;2024-03-08T04:54:41;7.28;;;1.50;;
74335;SDS011;62755;-33.398;-70.572;2024-03-08T04:57:11;12.68;;;1.40;;
74335;SDS011;62755;-33.398;-70.572;2024-03-08T04:59:40;8.88;;;1.70;;
74335;SDS011;62755;-33.398;-70.572;2024-03-08T05:02:10;9.68;;;1.55;;
74335;SDS011;62755;-33.398;-70.572;2024-03-08T05:04:40;8.57;;;1.55;;
74335;SDS011;62755;-33.398;-70.572;2024-03-08T05:07:12;7.03;;;1.20;;
74335;SDS011;62755;-33.398;-70.572;2024-03-08T05:09:41;8.07;;;1.45;;
74335;SDS011;62755;-33.398;-70.572;2024-03-08T05:14:46;9.20;;;1.52;;
74335;SDS011;62755;-33.398;-70.572;2024-03-08T05:17:17;10.30;;;1.50;;
74335;SDS011;62755;-33.398;-70.572;2024-03-08T05:19:46;7.90;;;1.40;;
74335;SDS011;62755;-33.398;-70.572;2024-03-08T05:22:18;5.90;;;1.20;;
74335;SDS011;62755;-33.398;-70.572;2024-03-08T05:24:47;16.08;;;1.50;;
74335;SDS011;62755;-33.398;-70.572;2024-03-08T05:27:17;6.88;;;0.93;;
74335;SDS011;62755;-33.398;-70.572;2024-03-08T05:29:47;10.75;;;1.38;;
74335;SDS011;62755;-33.398;-70.572;2024-03-08T05:32:17;16.00;;;1.98;;
74335;SDS011;62755;-33.398;-70.572;2024-03-08T05:34:46;10.30;;;1.95;;
74335;SDS011;62755;-33.398;-70.572;2024-03-08T05:37:18;12.27;;;2.00;;
74335;SDS011;62755;-33.398;-70.572;2024-03-08T05:39:48;7.85;;;2.17;;
74335;SDS011;62755;-33.398;-70.572;2024-03-08T05:42:17;12.95;;;2.40;;
74335;SDS011;62755;-33.398;-70.572;2024-03-08T05:44:47;7.50;;;2.15;;
74335;SDS011;62755;-33.398;-70.572;2024-03-08T05:47:17;8.75;;;1.83;;
74335;SDS011;62755;-33.398;-70.572;2024-03-08T05:49:47;7.80;;;2.10;;
74335;SDS011;62755;-33.398;-70.572;2024-03-08T05:52:18;13.20;;;2.00;;
74335;SDS011;62755;-33.398;-70.572;2024-03-08T05:54:48;7.78;;;1.70;;
74335;SDS011;62755;-33.398;-70.572;2024-03-08T05:57:17;9.75;;;1.33;;
74335;SDS011;62755;-33.398;-70.572;2024-03-08T05:59:49;8.80;;;1.35;;
74335;SDS011;62755;-33.398;-70.572;2024-03-08T06:02:19;9.60;;;1.20;;
74335;SDS011;62755;-33.398;-70.572;2024-03-08T06:04:49;5.97;;;1.13;;
74335;SDS011;62755;-33.398;-70.572;2024-03-08T06:07:20;11.93;;;1.30;;
74335;SDS011;62755;-33.398;-70.572;2024-03-08T06:09:50;12.25;;;1.85;;
74335;SDS011;62755;-33.398;-70.572;2024-03-08T06:12:20;10.52;;;1.38;;
74335;SDS011;62755;-33.398;-70.572;2024-03-08T06:14:50;8.48;;;1.20;;
74335;SDS011;62755;-33.398;-70.572;2024-03-08T06:17:20;6.95;;;1.00;;
74335;SDS011;62755;-33.398;-70.572;2024-03-08T06:19:51;7.22;;;1.70;;
74335;SDS011;62755;-33.398;-70.572;2024-03-08T06:22:23;8.23;;;1.23;;
74335;SDS011;62755;-33.398;-70.572;2024-03-08T06:24:52;2.88;;;1.08;;
74335;SDS011;62755;-33.398;-70.572;2024-03-08T06:27:22;5.97;;;1.40;;
74335;SDS011;62755;-33.398;-70.572;2024-03-08T06:29:54;8.18;;;1.55;;
74335;SDS011;62755;-33.398;-70.572;2024-03-08T06:32:24;7.00;;;1.40;;
74335;SDS011;62755;-33.398;-70.572;2024-03-08T06:34:53;7.05;;;1.40;;
74335;SDS011;62755;-33.398;-70.572;2024-03-08T06:37:25;9.85;;;1.48;;
74335;SDS011;62755;-33.398;-70.572;2024-03-08T06:39:54;7.43;;;1.50;;
74335;SDS011;62755;-33.398;-70.572;2024-03-08T06:42:24;4.10;;;1.30;;
74335;SDS011;62755;-33.398;-70.572;2024-03-08T06:44:53;6.20;;;1.40;;
74335;SDS011;62755;-33.398;-70.572;2024-03-08T06:47:30;8.88;;;1.52;;
74335;SDS011;62755;-33.398;-70.572;2024-03-08T06:50:00;10.77;;;2.10;;
74335;SDS011;62755;-33.398;-70.572;2024-03-08T06:52:31;12.75;;;1.98;;
74335;SDS011;62755;-33.398;-70.572;2024-03-08T06:55:01;9.15;;;1.75;;
74335;SDS011;62755;-33.398;-70.572;2024-03-08T06:57:31;9.90;;;1.42;;
74335;SDS011;62755;-33.398;-70.572;2024-03-08T07:00:01;12.77;;;1.75;;
74335;SDS011;62755;-33.398;-70.572;2024-03-08T07:02:31;12.65;;;1.58;;
74335;SDS011;62755;-33.398;-70.572;2024-03-08T07:05:01;6.30;;;1.70;;
74335;SDS011;62755;-33.398;-70.572;2024-03-08T07:07:33;8.05;;;1.73;;
74335;SDS011;62755;-33.398;-70.572;2024-03-08T07:10:03;6.85;;;1.75;;
74335;SDS011;62755;-33.398;-70.572;2024-03-08T07:12:37;5.22;;;1.63;;
74335;SDS011;62755;-33.398;-70.572;2024-03-08T07:15:07;7.47;;;1.80;;
74335;SDS011;62755;-33.398;-70.572;2024-03-08T07:17:39;11.10;;;2.05;;
74335;SDS011;62755;-33.398;-70.572;2024-03-08T07:20:10;13.07;;;1.88;;
74335;SDS011;62755;-33.398;-70.572;2024-03-08T07:22:43;12.30;;;1.85;;
74335;SDS011;62755;-33.398;-70.572;2024-03-08T07:25:13;8.68;;;1.70;;
74335;SDS011;62755;-33.398;-70.572;2024-03-08T07:27:47;8.82;;;1.52;;
74335;SDS011;62755;-33.398;-70.572;2024-03-08T07:30:18;10.68;;;1.90;;
74335;SDS011;62755;-33.398;-70.572;2024-03-08T07:33:03;6.47;;;1.48;;
74335;SDS011;62755;-33.398;-70.572;2024-03-08T07:35:33;5.82;;;1.50;;
74335;SDS011;62755;-33.398;-70.572;2024-03-08T07:38:05;6.32;;;1.45;;
74335;SDS011;62755;-33.398;-70.572;2024-03-08T07:40:35;6.70;;;1.20;;
74335;SDS011;62755;-33.398;-70.572;2024-03-08T07:43:06;3.17;;;1.00;;
74335;SDS011;62755;-33.398;-70.572;2024-03-08T07:45:37;7.68;;;1.55;;
74335;SDS011;62755;-33.398;-70.572;2024-03-08T07:48:07;6.82;;;1.75;;
74335;SDS011;62755;-33.398;-70.572;2024-03-08T07:50:36;11.65;;;1.48;;
74335;SDS011;62755;-33.398;-70.572;2024-03-08T07:53:08;8.77;;;1.35;;
74335;SDS011;62755;-33.398;-70.572;2024-03-08T07:55:38;8.77;;;1.50;;
74335;SDS011;62755;-33.398;-70.572;2024-03-08T07:58:09;6.95;;;1.40;;
74335;SDS011;62755;-33.398;-70.572;2024-03-08T08:00:39;8.77;;;1.50;;
74335;SDS011;62755;-33.398;-70.572;2024-03-08T08:03:10;8.98;;;1.40;;
74335;SDS011;62755;-33.398;-70.572;2024-03-08T08:05:40;12.43;;;1.20;;
74335;SDS011;62755;-33.398;-70.572;2024-03-08T08:08:11;10.05;;;1.38;;
74335;SDS011;62755;-33.398;-70.572;2024-03-08T08:10:41;8.60;;;1.20;;
74335;SDS011;62755;-33.398;-70.572;2024-03-08T08:13:11;7.78;;;1.02;;
74335;SDS011;62755;-33.398;-70.572;2024-03-08T08:15:41;12.23;;;1.70;;
74335;SDS011;62755;-33.398;-70.572;2024-03-08T08:18:11;8.60;;;1.25;;
74335;SDS011;62755;-33.398;-70.572;2024-03-08T08:20:41;9.13;;;1.65;;
74335;SDS011;62755;-33.398;-70.572;2024-03-08T08:23:12;10.30;;;1.40;;
74335;SDS011;62755;-33.398;-70.572;2024-03-08T08:25:42;5.88;;;1.30;;
74335;SDS011;62755;-33.398;-70.572;2024-03-08T08:28:12;10.43;;;1.10;;
74335;SDS011;62755;-33.398;-70.572;2024-03-08T08:30:43;8.18;;;1.48;;
74335;SDS011;62755;-33.398;-70.572;2024-03-08T08:33:14;7.05;;;1.10;;
74335;SDS011;62755;-33.398;-70.572;2024-03-08T08:35:44;7.13;;;1.50;;
74335;SDS011;62755;-33.398;-70.572;2024-03-08T08:38:15;9.55;;;1.73;;
74335;SDS011;62755;-33.398;-70.572;2024-03-08T08:40:46;4.28;;;1.10;;
74335;SDS011;62755;-33.398;-70.572;2024-03-08T08:43:15;10.88;;;1.70;;
74335;SDS011;62755;-33.398;-70.572;2024-03-08T08:45:47;7.20;;;1.50;;
74335;SDS011;62755;-33.398;-70.572;2024-03-08T08:48:20;11.57;;;1.50;;
74335;SDS011;62755;-33.398;-70.572;2024-03-08T08:50:50;6.78;;;1.30;;
74335;SDS011;62755;-33.398;-70.572;2024-03-08T08:53:23;19.80;;;1.70;;
74335;SDS011;62755;-33.398;-70.572;2024-03-08T08:55:52;7.53;;;1.63;;
74335;SDS011;62755;-33.398;-70.572;2024-03-08T08:58:22;7.82;;;1.42;;
74335;SDS011;62755;-33.398;-70.572;2024-03-08T09:03:27;6.07;;;1.65;;
74335;SDS011;62755;-33.398;-70.572;2024-03-08T09:05:57;7.35;;;1.20;;
74335;SDS011;62755;-33.398;-70.572;2024-03-08T09:08:28;7.22;;;1.63;;
74335;SDS011;62755;-33.398;-70.572;2024-03-08T09:10:57;6.30;;;1.42;;
74335;SDS011;62755;-33.398;-70.572;2024-03-08T09:13:27;11.77;;;1.95;;
74335;SDS011;62755;-33.398;-70.572;2024-03-08T09:15:57;9.45;;;1.67;;
74335;SDS011;62755;-33.398;-70.572;2024-03-08T09:18:26;8.80;;;1.73;;
74335;SDS011;62755;-33.398;-70.572;2024-03-08T09:20:56;13.30;;;1.75;;
74335;SDS011;62755;-33.398;-70.572;2024-03-08T09:23:26;11.80;;;2.65;;
74335;SDS011;62755;-33.398;-70.572;2024-03-08T09:25:58;15.85;;;1.90;;
74335;SDS011;62755;-33.398;-70.572;2024-03-08T09:28:29;15.10;;;2.13;;
74335;SDS011;62755;-33.398;-70.572;2024-03-08T09:30:58;7.28;;;1.90;;
74335;SDS011;62755;-33.398;-70.572;2024-03-08T09:33:28;7.50;;;1.40;;
74335;SDS011;62755;-33.398;-70.572;2024-03-08T09:35:58;11.80;;;1.98;;
74335;SDS011;62755;-33.398;-70.572;2024-03-08T09:38:31;11.98;;;1.60;;
74335;SDS011;62755;-33.398;-70.572;2024-03-08T09:41:01;6.78;;;1.70;;
74335;SDS011;62755;-33.398;-70.572;2024-03-08T09:43:30;8.27;;;1.75;;
74335;SDS011;62755;-33.398;-70.572;2024-03-08T09:46:00;5.65;;;1.40;;
74335;SDS011;62755;-33.398;-70.572;2024-03-08T09:48:32;7.22;;;1.50;;
74335;SDS011;62755;-33.398;-70.572;2024-03-08T09:51:03;10.13;;;1.40;;
74335;SDS011;62755;-33.398;-70.572;2024-03-08T09:53:35;8.40;;;1.83;;
74335;SDS011;62755;-33.398;-70.572;2024-03-08T09:56:04;9.18;;;1.63;;
74335;SDS011;62755;-33.398;-70.572;2024-03-08T09:58:34;13.23;;;2.15;;
74335;SDS011;62755;-33.398;-70.572;2024-03-08T10:01:20;13.63;;;2.25;;
74335;SDS011;62755;-33.398;-70.572;2024-03-08T10:03:52;11.13;;;2.42;;
74335;SDS011;62755;-33.398;-70.572;2024-03-08T10:06:22;17.33;;;2.78;;
74335;SDS011;62755;-33.398;-70.572;2024-03-08T10:08:54;12.65;;;1.90;;
74335;SDS011;62755;-33.398;-70.572;2024-03-08T10:11:24;15.52;;;3.00;;
74335;SDS011;62755;-33.398;-70.572;2024-03-08T10:13:54;11.98;;;3.40;;
74335;SDS011;62755;-33.398;-70.572;2024-03-08T10:16:25;13.38;;;2.83;;
74335;SDS011;62755;-33.398;-70.572;2024-03-08T10:18:56;15.88;;;2.65;;
74335;SDS011;62755;-33.398;-70.572;2024-03-08T10:21:26;11.65;;;2.42;;
74335;SDS011;62755;-33.398;-70.572;2024-03-08T10:23:58;12.57;;;2.35;;
74335;SDS011;62755;-33.398;-70.572;2024-03-08T10:26:27;10.23;;;2.60;;
74335;SDS011;62755;-33.398;-70.572;2024-03-08T10:28:58;12.80;;;2.88;;
74335;SDS011;62755;-33.398;-70.572;2024-03-08T10:31:28;11.65;;;2.80;;
74335;SDS011;62755;-33.398;-70.572;2024-03-08T10:33:58;14.45;;;2.80;;
74335;SDS011;62755;-33.398;-70.572;2024-03-08T10:36:28;16.05;;;2.80;;
74335;SDS011;62755;-33.398;-70.572;2024-03-08T10:39:00;12.23;;;3.10;;
74335;SDS011;62755;-33.398;-70.572;2024-03-08T10:41:30;14.43;;;2.40;;
74335;SDS011;62755;-33.398;-70.572;2024-03-08T10:44:09;16.77;;;3.30;;
74335;SDS011;62755;-33.398;-70.572;2024-03-08T10:46:59;14.52;;;2.90;;
74335;SDS011;62755;-33.398;-70.572;2024-03-08T10:49:31;13.50;;;2.88;;
74335;SDS011;62755;-33.398;-70.572;2024-03-08T10:52:06;17.25;;;2.75;;
74335;SDS011;62755;-33.398;-70.572;2024-03-08T10:54:38;21.35;;;3.17;;
74335;SDS011;62755;-33.398;-70.572;2024-03-08T10:57:09;9.68;;;3.25;;
74335;SDS011;62755;-33.398;-70.572;2024-03-08T10:59:41;19.40;;;3.40;;
74335;SDS011;62755;-33.398;-70.572;2024-03-08T11:02:11;19.63;;;2.40;;
74335;SDS011;62755;-33.398;-70.572;2024-03-08T11:04:45;18.40;;;2.67;;
74335;SDS011;62755;-33.398;-70.572;2024-03-08T11:07:16;15.15;;;3.13;;
74335;SDS011;62755;-33.398;-70.572;2024-03-08T11:09:49;14.48;;;2.55;;
74335;SDS011;62755;-33.398;-70.572;2024-03-08T11:12:19;16.85;;;2.45;;
74335;SDS011;62755;-33.398;-70.572;2024-03-08T11:14:55;21.13;;;2.50;;
74335;SDS011;62755;-33.398;-70.572;2024-03-08T11:17:40;13.82;;;2.63;;
74335;SDS011;62755;-33.398;-70.572;2024-03-08T11:20:14;17.02;;;2.67;;
74335;SDS011;62755;-33.398;-70.572;2024-03-08T11:22:49;22.02;;;2.72;;
74335;SDS011;62755;-33.398;-70.572;2024-03-08T11:25:35;18.17;;;2.22;;
74335;SDS011;62755;-33.398;-70.572;2024-03-08T11:28:10;13.15;;;2.58;;
74335;SDS011;62755;-33.398;-70.572;2024-03-08T11:33:13;13.85;;;2.35;;
74335;SDS011;62755;-33.398;-70.572;2024-03-08T11:35:44;20.75;;;2.08;;
74335;SDS011;62755;-33.398;-70.572;2024-03-08T11:38:14;17.02;;;2.22;;
74335;SDS011;62755;-33.398;-70.572;2024-03-08T11:40:47;19.90;;;2.65;;
74335;SDS011;62755;-33.398;-70.572;2024-03-08T11:43:17;17.88;;;2.28;;
74335;SDS011;62755;-33.398;-70.572;2024-03-08T11:45:48;22.80;;;2.95;;
74335;SDS011;62755;-33.398;-70.572;2024-03-08T11:48:19;11.23;;;1.90;;
74335;SDS011;62755;-33.398;-70.572;2024-03-08T11:50:58;12.25;;;1.88;;
74335;SDS011;62755;-33.398;-70.572;2024-03-08T11:53:29;13.90;;;2.08;;
74335;SDS011;62755;-33.398;-70.572;2024-03-08T11:56:07;12.30;;;1.70;;
74335;SDS011;62755;-33.398;-70.572;2024-03-08T11:58:38;9.32;;;1.80;;
74335;SDS011;62755;-33.398;-70.572;2024-03-08T12:01:09;9.05;;;1.88;;
74335;SDS011;62755;-33.398;-70.572;2024-03-08T12:03:39;7.85;;;1.20;;
74335;SDS011;62755;-33.398;-70.572;2024-03-08T12:06:10;19.10;;;2.30;;
74335;SDS011;62755;-33.398;-70.572;2024-03-08T12:08:40;7.25;;;1.20;;
74335;SDS011;62755;-33.398;-70.572;2024-03-08T12:11:12;13.13;;;1.73;;
74335;SDS011;62755;-33.398;-70.572;2024-03-08T12:13:41;15.60;;;2.20;;
74335;SDS011;62755;-33.398;-70.572;2024-03-08T12:16:12;11.57;;;2.30;;
74335;SDS011;62755;-33.398;-70.572;2024-03-08T12:18:42;18.00;;;2.72;;
74335;SDS011;62755;-33.398;-70.572;2024-03-08T12:21:12;13.63;;;1.92;;
74335;SDS011;62755;-33.398;-70.572;2024-03-08T12:23:46;17.48;;;2.75;;
74335;SDS011;62755;-33.398;-70.572;2024-03-08T12:26:23;26.58;;;3.53;;
74335;SDS011;62755;-33.398;-70.572;2024-03-08T12:28:53;24.80;;;2.88;;
74335;SDS011;62755;-33.398;-70.572;2024-03-08T12:31:42;32.88;;;3.58;;
74335;SDS011;62755;-33.398;-70.572;2024-03-08T12:34:12;34.28;;;3.45;;
74335;SDS011;62755;-33.398;-70.572;2024-03-08T12:36:48;18.67;;;2.80;;
74335;SDS011;62755;-33.398;-70.572;2024-03-08T12:39:20;33.85;;;3.65;;
74335;SDS011;62755;-33.398;-70.572;2024-03-08T12:41:54;29.42;;;3.08;;
74335;SDS011;62755;-33.398;-70.572;2024-03-08T12:44:25;41.47;;;4.30;;
74335;SDS011;62755;-33.398;-70.572;2024-03-08T12:46:55;24.80;;;3.10;;
74335;SDS011;62755;-33.398;-70.572;2024-03-08T12:49:24;40.47;;;4.53;;
74335;SDS011;62755;-33.398;-70.572;2024-03-08T12:51:54;20.13;;;3.50;;
74335;SDS011;62755;-33.398;-70.572;2024-03-08T12:54:23;21.77;;;3.58;;
74335;SDS011;62755;-33.398;-70.572;2024-03-08T12:56:55;17.75;;;3.35;;
74335;SDS011;62755;-33.398;-70.572;2024-03-08T12:59:24;22.33;;;3.17;;
74335;SDS011;62755;-33.398;-70.572;2024-03-08T13:01:54;21.80;;;2.72;;
74335;SDS011;62755;-33.398;-70.572;2024-03-08T13:04:26;13.05;;;2.70;;
74335;SDS011;62755;-33.398;-70.572;2024-03-08T13:06:57;21.65;;;2.95;;
74335;SDS011;62755;-33.398;-70.572;2024-03-08T13:09:27;29.20;;;3.97;;
74335;SDS011;62755;-33.398;-70.572;2024-03-08T13:11:59;18.55;;;2.50;;
74335;SDS011;62755;-33.398;-70.572;2024-03-08T13:14:29;15.65;;;2.67;;
74335;SDS011;62755;-33.398;-70.572;2024-03-08T13:16:59;20.45;;;3.47;;
74335;SDS011;62755;-33.398;-70.572;2024-03-08T13:19:30;24.00;;;3.88;;
74335;SDS011;62755;-33.398;-70.572;2024-03-08T13:22:00;16.95;;;2.67;;
74335;SDS011;62755;-33.398;-70.572;2024-03-08T13:24:32;19.70;;;3.22;;
74335;SDS011;62755;-33.398;-70.572;2024-03-08T13:27:03;23.40;;;3.08;;
74335;SDS011;62755;-33.398;-70.572;2024-03-08T13:29:43;20.38;;;3.60;;
74335;SDS011;62755;-33.398;-70.572;2024-03-08T13:32:12;18.85;;;3.65;;
74335;SDS011;62755;-33.398;-70.572;2024-03-08T13:34:42;21.85;;;3.35;;
74335;SDS011;62755;-33.398;-70.572;2024-03-08T13:37:13;15.73;;;2.83;;
74335;SDS011;62755;-33.398;-70.572;2024-03-08T13:39:43;19.95;;;3.28;;
74335;SDS011;62755;-33.398;-70.572;2024-03-08T13:42:15;26.98;;;3.78;;
74335;SDS011;62755;-33.398;-70.572;2024-03-08T13:44:45;14.60;;;3.40;;
74335;SDS011;62755;-33.398;-70.572;2024-03-08T13:47:16;15.88;;;3.08;;
74335;SDS011;62755;-33.398;-70.572;2024-03-08T13:49:45;21.10;;;3.72;;
74335;SDS011;62755;-33.398;-70.572;2024-03-08T13:52:16;14.63;;;3.17;;
74335;SDS011;62755;-33.398;-70.572;2024-03-08T13:54:46;21.63;;;3.00;;
74335;SDS011;62755;-33.398;-70.572;2024-03-08T13:57:17;16.88;;;3.75;;
74335;SDS011;62755;-33.398;-70.572;2024-03-08T13:59:48;18.58;;;3.83;;
74335;SDS011;62755;-33.398;-70.572;2024-03-08T14:02:18;20.67;;;3.92;;
74335;SDS011;62755;-33.398;-70.572;2024-03-08T14:04:48;25.98;;;3.92;;
74335;SDS011;62755;-33.398;-70.572;2024-03-08T14:07:18;22.73;;;4.07;;
74335;SDS011;62755;-33.398;-70.572;2024-03-08T14:09:49;22.05;;;3.60;;
74335;SDS011;62755;-33.398;-70.572;2024-03-08T14:12:20;25.42;;;4.22;;
74335;SDS011;62755;-33.398;-70.572;2024-03-08T14:14:52;22.77;;;4.30;;
74335;SDS011;62755;-33.398;-70.572;2024-03-08T14:17:25;20.35;;;3.90;;
74335;SDS011;62755;-33.398;-70.572;2024-03-08T14:19:57;19.83;;;4.13;;
74335;SDS011;62755;-33.398;-70.572;2024-03-08T14:22:26;23.73;;;3.30;;
74335;SDS011;62755;-33.398;-70.572;2024-03-08T14:24:57;22.42;;;4.82;;
74335;SDS011;62755;-33.398;-70.572;2024-03-08T14:27:28;18.33;;;3.60;;
74335;SDS011;62755;-33.398;-70.572;2024-03-08T14:29:59;23.88;;;4.07;;